Gozo/Gharb, Malta
Current Conditions -  °F | °C
As of 10:45 PM on Sunday 23 Nov 2014 (Local Time) from LMML Reporting Station
Few Clouds Few Clouds  
Wind Chill: 59°   Ceiling: Unl
Heat Index: 59°   Visibility: 6mi
Dew Point: 57°   Wind: 2mph
Humidity: 94%   Direction: 80°E
Pressure: 30.27"   Gusts: NA
Location:  36.05°N, 14.27°E
Report Text: LMML 232045Z 08002KT 9999 FEW021 15/14 Q1025 NOSIG
Loading
Personal Weather Stations






























Interactive Weather Map New forecast layout! Learn more

10-Day Weather Forecast

Advertisements
Track Severe Weather on mobile